Time,TemperatureF,DewpointF,PressureIn,WindDirection,WindDirectionDegrees,WindSpeedMPH,WindSpeedGustMPH,Humidity,HourlyPrecipIn,Conditions,Clouds,dailyrainin,SoftwareType,DateUTC
2013-01-07 00:21:00,36.0,16.2,30.07,West,262,0.0,5.8,44,0.00,,---,0.00,VWS V12.08,2013-01-07 05:21:00,
2013-01-07 00:41:00,35.8,16.6,30.07,West,263,0.0,5.8,45,0.00,,---,0.00,VWS V12.08,2013-01-07 05:41:00,
2013-01-07 01:01:00,37.0,17.2,30.10,West,263,2.2,4.9,44,0.00,,---,0.00,VWS V12.08,2013-01-07 06:01:00,
2013-01-07 01:21:00,36.9,17.0,30.10,West,278,0.0,5.8,44,0.00,,---,0.00,VWS V12.08,2013-01-07 06:21:00,
2013-01-07 01:41:00,36.5,16.7,30.10,WNW,288,3.1,6.3,44,0.00,,---,0.00,VWS V12.08,2013-01-07 06:41:00,
2013-01-07 02:01:00,36.7,16.8,30.13,West,270,3.6,6.3,44,0.00,,---,0.00,VWS V12.08,2013-01-07 07:01:00,
2013-01-07 02:21:00,37.6,17.7,30.13,WNW,282,3.1,7.6,44,0.00,,---,0.00,VWS V12.08,2013-01-07 07:21:00,
2013-01-07 02:41:00,37.9,18.0,30.13,NW,307,5.4,9.6,44,0.00,,---,0.00,VWS V12.08,2013-01-07 07:41:00,
2013-01-07 03:01:00,37.6,17.7,30.13,West,273,3.1,6.3,44,0.00,,---,0.00,VWS V12.08,2013-01-07 08:01:00,
2013-01-07 03:21:00,36.5,16.7,30.13,WNW,288,4.9,6.3,44,0.00,,---,0.00,VWS V12.08,2013-01-07 08:21:00,
2013-01-07 03:41:00,36.3,16.5,30.13,WSW,252,2.2,6.3,44,0.00,,---,0.00,VWS V12.08,2013-01-07 08:41:00,
2013-01-07 04:01:00,36.5,16.7,30.16,West,267,3.1,6.3,44,0.00,,---,0.00,VWS V12.08,2013-01-07 09:01:00,
2013-01-07 04:21:00,37.4,17.5,30.16,West,273,3.1,8.1,44,0.00,,---,0.00,VWS V12.08,2013-01-07 09:21:00,
2013-01-07 04:41:00,37.4,17.5,30.16,WNW,292,3.1,7.6,44,0.00,,---,0.00,VWS V12.08,2013-01-07 09:41:00,
2013-01-07 05:01:00,37.0,17.2,30.16,WNW,301,2.7,7.2,44,0.00,,---,0.00,VWS V12.08,2013-01-07 10:01:00,
2013-01-07 05:21:00,36.7,16.8,30.19,NW,310,0.0,6.3,44,0.00,,---,0.00,VWS V12.08,2013-01-07 10:21:00,
2013-01-07 05:41:00,35.8,16.0,30.19,NW,310,3.1,4.0,44,0.00,,---,0.00,VWS V12.08,2013-01-07 10:41:00,
2013-01-07 06:01:00,35.6,16.4,30.19,WNW,293,0.0,4.9,45,0.00,,---,0.00,VWS V12.08,2013-01-07 11:01:00,
2013-01-07 06:21:00,34.9,15.8,30.22,WNW,289,0.0,0.0,45,0.00,,---,0.00,VWS V12.08,2013-01-07 11:21:00,
2013-01-07 06:41:00,34.9,16.3,30.22,NW,305,0.0,3.1,46,0.00,,---,0.00,VWS V12.08,2013-01-07 11:41:00,
2013-01-07 07:01:00,35.8,16.6,30.22,NW,324,0.0,4.0,45,0.00,,---,0.00,VWS V12.08,2013-01-07 12:01:00,
2013-01-07 07:21:00,36.3,16.5,30.25,WNW,284,0.0,7.2,44,0.00,,---,0.00,VWS V12.08,2013-01-07 12:21:00,
2013-01-07 07:41:00,35.6,16.4,30.25,WNW,284,0.0,0.0,45,0.00,,---,0.00,VWS V12.08,2013-01-07 12:41:00,
2013-01-07 08:01:00,35.4,16.8,30.28,WNW,282,0.0,0.0,46,0.00,,---,0.00,VWS V12.08,2013-01-07 13:01:00,
2013-01-07 08:41:00,37.2,17.9,30.28,WNW,287,0.0,0.0,45,0.00,,---,0.00,VWS V12.08,2013-01-07 13:41:00,
2013-01-07 09:01:00,38.5,18.5,30.31,West,278,0.0,5.8,44,0.00,,---,0.00,VWS V12.08,2013-01-07 14:01:00,
2013-01-07 09:21:00,39.4,18.7,30.31,WSW,256,0.0,5.4,43,0.00,,---,0.00,VWS V12.08,2013-01-07 14:21:00,
2013-01-07 09:41:00,39.9,19.2,30.31,WNW,282,3.6,5.8,43,0.00,,---,0.00,VWS V12.08,2013-01-07 14:41:00,
2013-01-07 10:01:00,42.1,21.2,30.31,NW,310,4.9,10.1,43,0.00,,---,0.00,VWS V12.08,2013-01-07 15:01:00,
2013-01-07 10:21:00,43.3,21.7,30.34,North,357,8.3,10.1,42,0.00,,---,0.00,VWS V12.08,2013-01-07 15:21:00,
2013-01-07 10:41:00,43.5,21.9,30.34,WNW,283,3.1,15.0,42,0.00,,---,0.00,VWS V12.08,2013-01-07 15:41:00,
2013-01-07 11:01:00,43.7,22.0,30.34,NNW,327,6.3,8.3,42,0.00,,---,0.00,VWS V12.08,2013-01-07 16:01:00,
2013-01-07 11:21:00,44.1,22.3,30.34,NNW,343,7.6,12.8,42,0.00,,---,0.00,VWS V12.08,2013-01-07 16:21:00,
2013-01-07 11:41:00,43.7,22.0,30.34,WNW,297,6.3,10.5,42,0.00,,---,0.00,VWS V12.08,2013-01-07 16:41:00,
2013-01-07 12:01:00,44.2,22.5,30.34,WNW,292,3.1,11.0,42,0.00,,---,0.00,VWS V12.08,2013-01-07 17:01:00,
2013-01-07 12:21:00,44.2,22.5,30.34,North,357,0.0,11.0,42,0.00,,---,0.00,VWS V12.08,2013-01-07 17:21:00,
2013-01-07 12:41:00,46.2,24.3,30.34,West,278,5.8,10.1,42,0.00,,---,0.00,VWS V12.08,2013-01-07 17:41:00,
2013-01-07 13:01:00,46.2,24.3,30.34,NE,48,4.0,12.3,42,0.00,,---,0.00,VWS V12.08,2013-01-07 18:01:00,
2013-01-07 13:21:00,45.5,23.6,30.34,NW,313,4.9,10.1,42,0.00,,---,0.00,VWS V12.08,2013-01-07 18:21:00,
2013-01-07 13:41:00,46.6,24.0,30.34,North,353,5.8,8.7,41,0.00,,---,0.00,VWS V12.08,2013-01-07 18:41:00,
2013-01-07 14:01:00,46.0,24.1,30.34,North,357,5.8,10.1,42,0.00,,---,0.00,VWS V12.08,2013-01-07 19:01:00,
2013-01-07 14:21:00,46.6,24.0,30.34,WNW,286,7.6,9.2,41,0.00,,---,0.00,VWS V12.08,2013-01-07 19:21:00,
2013-01-07 14:41:00,46.6,24.0,30.34,WNW,283,2.7,8.3,41,0.00,,---,0.00,VWS V12.08,2013-01-07 19:41:00,
2013-01-07 15:01:00,46.8,24.1,30.37,North,4,7.6,8.3,41,0.00,,---,0.00,VWS V12.08,2013-01-07 20:01:00,
2013-01-07 15:21:00,46.4,23.8,30.37,WSW,241,3.6,7.6,41,0.00,,---,0.00,VWS V12.08,2013-01-07 20:21:00,
2013-01-07 15:41:00,45.7,23.8,30.37,West,267,5.4,6.3,42,0.00,,---,0.00,VWS V12.08,2013-01-07 20:41:00,
2013-01-07 16:01:00,45.5,23.6,30.37,WNW,295,2.7,7.6,42,0.00,,---,0.00,VWS V12.08,2013-01-07 21:01:00,
2013-01-07 16:21:00,44.1,22.3,30.37,West,265,5.8,7.2,42,0.00,,---,0.00,VWS V12.08,2013-01-07 21:21:00,
2013-01-07 16:41:00,42.6,21.6,30.37,West,277,0.0,9.2,43,0.00,,---,0.00,VWS V12.08,2013-01-07 21:41:00,
2013-01-07 17:01:00,41.2,20.3,30.40,West,270,0.0,5.8,43,0.00,,---,0.00,VWS V12.08,2013-01-07 22:01:00,
2013-01-07 17:21:00,39.6,18.9,30.37,WNW,293,0.0,4.0,43,0.00,,---,0.00,VWS V12.08,2013-01-07 22:21:00,
2013-01-07 17:41:00,37.4,17.5,30.40,WNW,293,0.0,0.0,44,0.00,,---,0.00,VWS V12.08,2013-01-07 22:41:00,
2013-01-07 18:01:00,36.1,16.4,30.40,WNW,292,0.0,0.0,44,0.00,,---,0.00,VWS V12.08,2013-01-07 23:01:00,
2013-01-07 18:21:00,35.1,15.9,30.40,WNW,292,0.0,0.0,45,0.00,,---,0.00,VWS V12.08,2013-01-07 23:21:00,
2013-01-07 18:41:00,34.0,14.9,30.40,WNW,292,0.0,0.0,45,0.00,,---,0.00,VWS V12.08,2013-01-07 23:41:00,
2013-01-07 19:01:00,32.7,13.8,30.40,WNW,293,0.0,0.0,45,0.00,,---,0.00,VWS V12.08,2013-01-08 00:01:00,
2013-01-07 19:21:00,32.7,13.8,30.40,WNW,291,0.0,0.0,45,0.00,,---,0.00,VWS V12.08,2013-01-08 00:21:00,
2013-01-07 19:41:00,32.4,13.5,30.40,WNW,291,0.0,0.0,45,0.00,,---,0.00,VWS V12.08,2013-01-08 00:41:00,
2013-01-07 20:01:00,31.8,13.0,30.40,WNW,292,0.0,0.0,45,0.00,,---,0.00,VWS V12.08,2013-01-08 01:01:00,
2013-01-07 20:21:00,31.1,12.9,30.40,WNW,293,0.0,0.0,46,0.00,,---,0.00,VWS V12.08,2013-01-08 01:21:00,
2013-01-07 20:41:00,30.4,12.2,30.40,WNW,292,0.0,0.0,46,0.00,,---,0.00,VWS V12.08,2013-01-08 01:41:00,
2013-01-07 21:01:00,30.0,12.4,30.40,WNW,292,0.0,0.0,47,0.00,,---,0.00,VWS V12.08,2013-01-08 02:01:00,
2013-01-07 21:21:00,29.5,11.9,30.40,WNW,293,0.0,0.0,47,0.00,,---,0.00,VWS V12.08,2013-01-08 02:21:00,
2013-01-07 21:41:00,29.3,11.7,30.40,WNW,291,0.0,0.0,47,0.00,,---,0.00,VWS V12.08,2013-01-08 02:41:00,
2013-01-07 22:01:00,28.6,11.6,30.40,WNW,292,0.0,0.0,48,0.00,,---,0.00,VWS V12.08,2013-01-08 03:01:00,
2013-01-07 22:21:00,28.2,11.2,30.40,WNW,293,0.0,0.0,48,0.00,,---,0.00,VWS V12.08,2013-01-08 03:21:00,
2013-01-07 22:41:00,27.9,11.4,30.40,WNW,292,0.0,0.0,50,0.00,,---,0.00,VWS V12.08,2013-01-08 03:41:00,
2013-01-07 23:01:00,27.9,10.9,30.40,WNW,292,0.0,0.0,48,0.00,,---,0.00,VWS V12.08,2013-01-08 04:01:00,
2013-01-07 23:20:00,27.5,10.6,30.40,WNW,292,0.0,0.0,48,0.00,,---,0.00,VWS V12.08,2013-01-08 04:20:00,
2013-01-07 23:41:00,26.8,10.4,30.40,WNW,292,0.0,0.0,50,0.00,,---,0.00,VWS V12.08,2013-01-08 04:41:00,